Yellowknife Airport
CYZF : now visible

Airfield :











YOU CAN JOIN US ON...

 
LOGIN :

Register | Disclaimer

   EN    FR    IT 

 









Legend :    VFR   Marginal VFR   IFR   Intensive IFR   Very Intensive IFR
Visi :
Ceiling :
>= 8 km
>= 3000ft
5 to 8 km
1000 to 3000 ft
1500m to 5 km
500 to 1000 ft
800 to 1500m
200 to 500 ft
< 800m
< 200 ft
Symbols :   Thunderstorms  Fog  Heavy snow  Heavy precipitations  Wind > 20 kt






- Airport Elevation : 675 ft
- IATA code : YZF


CYZF - Yellowknife

CURRENT METAR :
  • 181700Z 36007KT 310V030 15SM FEW060 FEW240 17/M01 A2983 RMK SC1CI1 SC TR CI TR SLP111 DENSITY ALT 1200FT

EXPIRED METARs :
  • 181600Z 34009KT 15SM FEW060 FEW240 17/M03 A2983 RMK SC1CI1 SC TR SLP110 DENSITY ALT 1200FT
  • 181500Z 34007KT 320V020 15SM FEW060 FEW240 16/M00 A2983 RMK SC1CI1 SC TR SLP109 DENSITY ALT 1100FT
  • 181400Z 32006KT 15SM FEW060 FEW240 14/03 A2983 RMK SC1CI1 SC TR SLP110
  • 181300Z 29006KT 15SM FEW140 FEW240 11/04 A2982 RMK CI1CI1 CI TR SLP108

TAF TAF CYZF
Valid from the 18 at 18:00 until the 19 at 18:00 UTC


181740Z 1818/1918 35010KT P6SM SCT060 SCT250
BECMG 1820/1822 28012G22KT SCT080
FM190300 25008KT P6SM SCT090 SCT150
TEMPO 1903/1911 BKN080 BKN150
BECMG 1904/1906 06006KT
FM191100 11006KT P6SM SCT080
TEMPO 1911/1918 BKN080
BECMG 1916/1918 16010KT RMK NXT FCST BY 190000Z
CZEG FIR / North America



MET'MAP, your aeronautical weather chart ! - Copyright ORBIFLY December 2007 - Disclaimer

ORBIFLY MET'MAP TEAM :

Programming & Development : Alexandra Zaïnal
Original concept : Baudouin d'Aumeries
Technical & hardware support : Manuel Goepfert
Assistance : Marc-Olivier Méhu




SOURCES & CREDITS :

   NOAA       Earth
Advisory